aviador You're here:

KCBM Decoded Metar

COLOMBUS in MS, USA
Report Time2017-08-19 13:56:00
UTC Time2017-08-19 14:56:26
Flight Rules vfr VFR
WindCalm
Visibility9999 m
Phenomena:N/A
Clouds:N/A
Expected CloudBase > 400 ft AGL from Temp-Dew spread
CeilingNone
Temp28°C (ISA +13)
Dew Point27°C (94% RH)
Heat Index34.5°C
QNH1016 hPa
Density Alt2,133 ft
Elevation220 ft
Report Wrong Elevation
Raw Report
KCBM 191356Z AUTO 00000KT 10SM CLR 28/27 A3000 RMK AO2 RAB25E47
SLP160 P0000 T02770273 $=

Extra information for KCBM:More info

Metar Taf Metar & Taf Last 4 Metars F.Rules Stats Wind Profile Meteogram Temp Stats Airport Information Weather charts Add Link Nearby VenuesMetar ALERT Operation Metar Decoded Social comments

AIRNAV info for KCBM